Time;durP1;ratioP1;P1;durP2;ratioP2;P2;SDS_P1;SDS_P2;PMS_P1;PMS_P2;Temp;Humidity;BMP_temperature;BMP_pressure;BME280_temperature;BME280_humidity;BME280_pressure;Samples;Min_cycle;Max_cycle;Signal;HPM_P1;HPM_P2
2024/03/18 00:00:55;;;;;;;;;;;19.80;42.80;;;;;;8392304;27;19920;-58
2024/03/18 00:04:56;;;;;;;;;;;19.80;42.70;;;;;;8425241;28;20357;-58
2024/03/18 00:08:57;;;;;;;;;;;19.80;42.60;;;;;;8425390;28;19948;-58
2024/03/18 00:12:57;;;;;;;;;;;19.80;42.60;;;;;;8411499;28;20400;-57
2024/03/18 00:16:58;;;;;;;;;;;19.70;44.30;;;;;;8391747;28;19920;-58
2024/03/18 00:20:59;;;;;;;;;;;19.50;44.60;;;;;;8391658;28;19945;-58
2024/03/18 00:25:00;;;;;;;;;;;19.50;44.10;;;;;;8391451;28;19953;-58
2024/03/18 00:29:01;;;;;;;;;;;19.60;43.60;;;;;;8391579;28;19917;-58
2024/03/18 00:33:02;;;;;;;;;;;19.60;43.30;;;;;;8391303;28;20049;-58
2024/03/18 00:37:02;;;;;;;;;;;19.70;43.10;;;;;;8425834;27;19942;-59
2024/03/18 00:45:22;;;;;;;;;;;19.70;42.80;;;;;;8391083;27;19912;-59
2024/03/18 00:49:23;;;;;;;;;;;19.70;42.70;;;;;;8391019;27;19912;-59
2024/03/18 00:53:23;;;;;;;;;;;19.70;42.60;;;;;;8390631;28;19924;-59
2024/03/18 00:57:24;;;;;;;;;;;19.70;42.60;;;;;;8372708;28;19917;-58
2024/03/18 01:01:25;;;;;;;;;;;19.70;42.40;;;;;;8350395;28;19912;-59
2024/03/18 01:05:25;;;;;;;;;;;19.60;43.80;;;;;;8424332;28;19912;-59
2024/03/18 01:09:26;;;;;;;;;;;19.40;44.50;;;;;;8424442;28;19912;-59
2024/03/18 01:13:31;;;;;;;;;;;19.50;43.90;;;;;;8405883;27;19927;-59
2024/03/18 01:17:32;;;;;;;;;;;19.60;43.50;;;;;;8390174;28;20015;-59
2024/03/18 01:21:32;;;;;;;;;;;19.70;43.10;;;;;;8372382;28;19913;-59
2024/03/18 01:25:34;;;;;;;;;;;19.70;43.00;;;;;;8390117;28;20000;-59
2024/03/18 01:29:35;;;;;;;;;;;19.70;42.80;;;;;;8389942;27;20453;-59
2024/03/18 01:33:35;;;;;;;;;;;19.70;42.60;;;;;;8389986;27;19944;-59
2024/03/18 01:37:36;;;;;;;;;;;19.70;42.40;;;;;;8424323;27;19923;-59
2024/03/18 01:41:36;;;;;;;;;;;19.70;42.40;;;;;;8391520;27;20445;-59
2024/03/18 01:45:38;;;;;;;;;;;19.70;42.30;;;;;;8389427;28;19989;-60
2024/03/18 01:49:39;;;;;;;;;;;19.70;42.50;;;;;;8389437;27;20389;-59
2024/03/18 01:53:40;;;;;;;;;;;19.50;43.70;;;;;;8389516;27;20274;-59
2024/03/18 01:57:41;;;;;;;;;;;19.40;44.20;;;;;;8388042;27;19924;-59
2024/03/18 02:01:41;;;;;;;;;;;19.50;43.60;;;;;;8394941;28;19919;-59
2024/03/18 02:05:42;;;;;;;;;;;19.60;43.20;;;;;;8422812;28;19964;-59
2024/03/18 02:09:43;;;;;;;;;;;19.60;43.00;;;;;;8422199;28;20276;-59
2024/03/18 02:13:44;;;;;;;;;;;19.60;42.70;;;;;;8402008;28;19963;-59
2024/03/18 02:17:44;;;;;;;;;;;19.70;42.60;;;;;;8388448;28;19917;-59
2024/03/18 02:21:47;;;;;;;;;;;19.70;42.40;;;;;;8354700;28;20642;-58
2024/03/18 02:25:48;;;;;;;;;;;19.70;42.30;;;;;;8355675;28;20444;-59
2024/03/18 02:29:48;;;;;;;;;;;19.70;42.30;;;;;;8355039;28;19947;-60
2024/03/18 02:33:49;;;;;;;;;;;19.70;42.20;;;;;;8355345;28;19997;-59
2024/03/18 02:37:50;;;;;;;;;;;19.70;42.50;;;;;;8389094;27;20019;-60
2024/03/18 02:41:51;;;;;;;;;;;19.50;43.70;;;;;;8376933;27;20127;-58
2024/03/18 02:45:52;;;;;;;;;;;19.40;44.10;;;;;;8528054;27;20526;-58
2024/03/18 02:49:52;;;;;;;;;;;19.50;43.50;;;;;;8528261;27;20276;-58
2024/03/18 02:53:53;;;;;;;;;;;19.50;43.20;;;;;;8528369;27;20269;-59
2024/03/18 02:57:53;;;;;;;;;;;19.60;42.80;;;;;;8523008;27;19915;-59
2024/03/18 03:01:54;;;;;;;;;;;19.60;42.60;;;;;;8362134;28;19976;-59
2024/03/18 03:05:54;;;;;;;;;;;19.60;42.40;;;;;;8387452;28;19948;-59
2024/03/18 03:09:55;;;;;;;;;;;19.70;42.30;;;;;;8373769;28;19920;-61
2024/03/18 03:13:56;;;;;;;;;;;19.60;42.20;;;;;;8371474;28;19925;-59
2024/03/18 03:17:56;;;;;;;;;;;19.70;42.10;;;;;;8360088;28;19920;-59
2024/03/18 03:21:57;;;;;;;;;;;19.60;42.00;;;;;;8358920;28;19923;-58
2024/03/18 03:25:58;;;;;;;;;;;19.60;42.40;;;;;;8359762;28;19913;-58
2024/03/18 03:29:59;;;;;;;;;;;19.50;43.60;;;;;;8359780;28;20354;-59
2024/03/18 03:33:59;;;;;;;;;;;19.40;43.80;;;;;;8359894;28;20005;-59
2024/03/18 03:38:00;;;;;;;;;;;19.40;43.30;;;;;;8375834;27;20418;-58
2024/03/18 03:42:03;;;;;;;;;;;19.50;42.90;;;;;;8361503;27;20003;-59
2024/03/18 03:46:04;;;;;;;;;;;19.60;42.60;;;;;;8359500;28;19908;-59
2024/03/18 03:50:09;;;;;;;;;;;19.60;42.40;;;;;;8359718;28;20350;-60
2024/03/18 03:54:09;;;;;;;;;;;19.60;42.30;;;;;;8359317;28;19956;-59
2024/03/18 03:58:10;;;;;;;;;;;19.60;42.20;;;;;;8359115;28;19920;-59
2024/03/18 04:02:11;;;;;;;;;;;19.60;42.10;;;;;;8369228;28;20334;-59
2024/03/18 04:06:12;;;;;;;;;;;19.70;42.00;;;;;;8392673;28;19921;-60
2024/03/18 04:10:13;;;;;;;;;;;19.70;41.90;;;;;;8392165;28;19912;-60
2024/03/18 04:14:14;;;;;;;;;;;19.60;42.50;;;;;;8367538;27;19924;-60
2024/03/18 04:18:16;;;;;;;;;;;19.40;43.50;;;;;;8359253;27;19913;-60
2024/03/18 04:22:17;;;;;;;;;;;19.30;43.60;;;;;;8358257;28;19920;-59
2024/03/18 04:26:18;;;;;;;;;;;19.40;43.10;;;;;;8358589;28;19913;-60
2024/03/18 04:30:19;;;;;;;;;;;19.50;42.80;;;;;;8340267;28;19920;-60
2024/03/18 04:34:20;;;;;;;;;;;19.50;42.50;;;;;;8358103;28;20020;-59
2024/03/18 04:38:20;;;;;;;;;;;19.60;42.30;;;;;;8392204;27;19913;-59
2024/03/18 04:42:21;;;;;;;;;;;19.60;42.10;;;;;;8341847;27;19917;-59
2024/03/18 04:46:22;;;;;;;;;;;19.60;42.00;;;;;;8358026;28;19909;-60
2024/03/18 04:50:23;;;;;;;;;;;19.60;41.90;;;;;;8340017;28;19956;-60
2024/03/18 04:54:24;;;;;;;;;;;19.70;41.90;;;;;;8357536;28;19920;-60
2024/03/18 04:58:25;;;;;;;;;;;19.60;41.80;;;;;;8357590;27;19959;-60
2024/03/18 05:02:27;;;;;;;;;;;19.60;42.50;;;;;;8369478;28;19913;-60
2024/03/18 05:06:27;;;;;;;;;;;19.40;43.50;;;;;;8372994;28;19915;-59
2024/03/18 05:10:29;;;;;;;;;;;19.30;43.40;;;;;;8372449;28;20365;-60
2024/03/18 05:14:30;;;;;;;;;;;19.40;42.80;;;;;;8363596;27;19933;-59
2024/03/18 05:18:30;;;;;;;;;;;19.50;42.50;;;;;;8339139;28;19916;-59
2024/03/18 05:22:32;;;;;;;;;;;19.60;42.20;;;;;;8356997;28;19913;-57
2024/03/18 05:26:33;;;;;;;;;;;19.60;42.00;;;;;;8356898;28;19916;-59
2024/03/18 05:30:34;;;;;;;;;;;19.60;41.70;;;;;;8356277;28;19953;-59
2024/03/18 05:34:35;;;;;;;;;;;19.70;41.50;;;;;;8355923;28;20290;-59
2024/03/18 05:38:36;;;;;;;;;;;19.80;41.40;;;;;;8375388;27;19919;-59
2024/03/18 05:42:36;;;;;;;;;;;19.80;41.30;;;;;;8358419;27;19913;-59
2024/03/18 05:46:38;;;;;;;;;;;19.80;41.30;;;;;;8356362;28;19913;-59
2024/03/18 05:50:39;;;;;;;;;;;19.70;42.20;;;;;;8356247;28;19913;-59
2024/03/18 05:54:39;;;;;;;;;;;19.50;43.00;;;;;;8356374;28;19928;-59
2024/03/18 05:58:40;;;;;;;;;;;19.50;42.80;;;;;;8355845;28;19917;-60
2024/03/18 06:02:41;;;;;;;;;;;19.60;42.30;;;;;;8355789;28;19917;-58
2024/03/18 06:06:41;;;;;;;;;;;19.70;41.90;;;;;;8356135;28;19916;-59
2024/03/18 06:10:42;;;;;;;;;;;19.70;41.70;;;;;;8355564;28;20053;-59
2024/03/18 06:14:42;;;;;;;;;;;19.70;41.50;;;;;;8355668;27;19925;-57
2024/03/18 06:18:43;;;;;;;;;;;19.80;41.30;;;;;;8355633;28;20366;-58
2024/03/18 06:22:46;;;;;;;;;;;19.80;41.20;;;;;;8355376;28;20460;-60
2024/03/18 06:26:46;;;;;;;;;;;19.80;41.20;;;;;;8355644;28;19955;-60
2024/03/18 06:30:50;;;;;;;;;;;19.80;41.00;;;;;;8355309;28;19912;-60
2024/03/18 06:34:51;;;;;;;;;;;19.80;40.90;;;;;;8354982;28;20389;-59
2024/03/18 06:38:51;;;;;;;;;;;19.70;42.10;;;;;;8374898;27;19913;-59
2024/03/18 06:42:52;;;;;;;;;;;19.60;43.00;;;;;;8358043;27;19920;-59
2024/03/18 06:46:53;;;;;;;;;;;19.60;42.50;;;;;;8361168;28;20355;-59
2024/03/18 06:50:53;;;;;;;;;;;19.70;42.10;;;;;;8360960;28;19913;-59
2024/03/18 06:54:54;;;;;;;;;;;19.70;41.70;;;;;;8360598;28;20290;-59
2024/03/18 06:58:54;;;;;;;;;;;19.80;41.40;;;;;;8360426;27;19932;-59
2024/03/18 07:02:55;;;;;;;;;;;19.80;41.30;;;;;;8360543;28;19920;-59
2024/03/18 07:06:55;;;;;;;;;;;19.80;41.10;;;;;;8360582;28;20450;-60
2024/03/18 07:10:56;;;;;;;;;;;19.80;41.00;;;;;;8360359;28;19927;-59
2024/03/18 07:14:56;;;;;;;;;;;19.80;41.00;;;;;;8360114;28;20285;-60
2024/03/18 07:18:58;;;;;;;;;;;19.90;40.90;;;;;;8360299;28;19913;-59
2024/03/18 07:22:58;;;;;;;;;;;19.80;40.80;;;;;;8342091;28;20511;-59
2024/03/18 07:26:59;;;;;;;;;;;19.70;42.00;;;;;;8360094;28;20324;-59
2024/03/18 07:31:00;;;;;;;;;;;19.60;42.80;;;;;;8359955;28;20011;-59
2024/03/18 07:35:01;;;;;;;;;;;19.60;42.30;;;;;;8359514;28;19924;-59
2024/03/18 07:39:04;;;;;;;;;;;19.70;41.80;;;;;;8378824;27;19915;-59
2024/03/18 07:43:11;;;;;;;;;;;19.70;41.60;;;;;;8361293;27;19913;-59
2024/03/18 07:47:11;;;;;;;;;;;19.80;41.30;;;;;;8342645;28;20051;-59
2024/03/18 07:51:12;;;;;;;;;;;19.80;41.20;;;;;;8341727;28;19913;-59
2024/03/18 07:55:13;;;;;;;;;;;19.80;41.00;;;;;;8358119;28;19917;-59
2024/03/18 07:59:13;;;;;;;;;;;19.80;40.90;;;;;;8359019;27;19913;-59
2024/03/18 08:03:14;;;;;;;;;;;19.80;40.80;;;;;;8359144;28;19920;-59
2024/03/18 08:07:15;;;;;;;;;;;19.80;40.80;;;;;;8359122;28;19913;-59
2024/03/18 08:11:15;;;;;;;;;;;19.80;40.70;;;;;;8358782;28;20297;-58
2024/03/18 08:15:16;;;;;;;;;;;19.60;42.10;;;;;;8358329;28;19964;-58
2024/03/18 08:19:17;;;;;;;;;;;19.50;42.80;;;;;;8358754;28;19913;-59
2024/03/18 08:23:17;;;;;;;;;;;19.60;42.20;;;;;;8358609;28;19913;-59
2024/03/18 08:27:18;;;;;;;;;;;19.70;41.70;;;;;;8358161;28;19947;-58
2024/03/18 08:31:19;;;;;;;;;;;19.70;41.50;;;;;;8358437;28;19919;-60
2024/03/18 08:35:19;;;;;;;;;;;19.80;41.20;;;;;;8358193;28;19924;-59
2024/03/18 08:39:20;;;;;;;;;;;19.80;41.00;;;;;;8376703;27;19916;-59
2024/03/18 08:43:20;;;;;;;;;;;19.80;40.90;;;;;;8445123;27;19915;-59
2024/03/18 08:47:21;;;;;;;;;;;19.80;40.80;;;;;;8531853;27;19918;-58
2024/03/18 08:51:21;;;;;;;;;;;19.80;40.70;;;;;;8531631;27;20388;-60
2024/03/18 08:55:22;;;;;;;;;;;19.90;40.70;;;;;;8531275;27;20412;-59
2024/03/18 08:59:23;;;;;;;;;;;19.80;40.60;;;;;;8462153;27;19915;-60
2024/03/18 09:03:23;;;;;;;;;;;19.70;42.00;;;;;;8357526;28;19913;-60
2024/03/18 09:07:26;;;;;;;;;;;19.50;42.70;;;;;;8357298;28;19956;-58
2024/03/18 09:11:27;;;;;;;;;;;19.60;42.00;;;;;;8357416;28;19956;-60
2024/03/18 09:15:27;;;;;;;;;;;19.70;41.60;;;;;;8356923;28;19925;-61
2024/03/18 09:19:40;;;;;;;;;;;19.70;41.30;;;;;;8357368;28;19920;-59
2024/03/18 09:23:40;;;;;;;;;;;19.80;41.10;;;;;;8357201;28;20015;-60
2024/03/18 09:27:41;;;;;;;;;;;19.80;41.00;;;;;;8356770;28;19916;-59
2024/03/18 09:31:43;;;;;;;;;;;19.80;40.80;;;;;;8357345;28;19970;-59
2024/03/18 09:35:43;;;;;;;;;;;19.80;40.70;;;;;;8356631;28;20377;-59
2024/03/18 09:39:44;;;;;;;;;;;19.80;40.60;;;;;;8374992;27;20286;-60
2024/03/18 09:43:45;;;;;;;;;;;19.80;40.50;;;;;;8358240;27;19955;-60
2024/03/18 09:47:46;;;;;;;;;;;19.80;40.80;;;;;;8356513;28;19916;-60
2024/03/18 09:51:47;;;;;;;;;;;19.70;42.00;;;;;;8356390;28;19956;-60
2024/03/18 09:55:48;;;;;;;;;;;19.60;42.40;;;;;;8356160;28;20370;-59
2024/03/18 09:59:48;;;;;;;;;;;19.70;41.90;;;;;;8355949;27;20378;-58
2024/03/18 10:03:49;;;;;;;;;;;19.70;41.50;;;;;;8356081;28;20290;-59
2024/03/18 10:07:55;;;;;;;;;;;19.80;41.20;;;;;;8355929;28;19917;-60
2024/03/18 10:11:55;;;;;;;;;;;19.80;40.90;;;;;;8354540;28;20453;-59
2024/03/18 10:15:56;;;;;;;;;;;19.80;40.80;;;;;;8355584;28;20302;-59
2024/03/18 10:19:57;;;;;;;;;;;19.80;40.60;;;;;;8354744;28;19912;-59
2024/03/18 10:23:59;;;;;;;;;;;19.80;40.60;;;;;;8355856;28;20242;-59
2024/03/18 10:28:03;;;;;;;;;;;19.80;40.50;;;;;;8355203;28;20355;-59
2024/03/18 10:32:04;;;;;;;;;;;19.80;40.40;;;;;;8355699;28;19916;-59
2024/03/18 10:36:05;;;;;;;;;;;19.80;40.90;;;;;;8354861;28;19917;-58
2024/03/18 10:40:08;;;;;;;;;;;19.60;42.20;;;;;;8373726;27;19921;-58
2024/03/18 10:44:17;;;;;;;;;;;19.50;42.40;;;;;;8356746;27;20115;-59
2024/03/18 10:48:17;;;;;;;;;;;19.60;41.90;;;;;;8355407;28;19909;-59
2024/03/18 10:52:18;;;;;;;;;;;19.70;41.40;;;;;;8355148;28;19916;-59
2024/03/18 10:56:19;;;;;;;;;;;19.70;41.20;;;;;;8354720;28;19917;-59
2024/03/18 11:00:21;;;;;;;;;;;19.80;41.00;;;;;;8354742;27;19913;-59
2024/03/18 11:04:22;;;;;;;;;;;19.80;40.80;;;;;;8354954;28;19915;-58
2024/03/18 11:08:23;;;;;;;;;;;19.80;40.60;;;;;;8354692;28;19917;-60
2024/03/18 11:12:31;;;;;;;;;;;19.80;40.60;;;;;;8354149;27;19913;-59
2024/03/18 11:16:33;;;;;;;;;;;19.80;40.50;;;;;;8354437;28;20357;-59
2024/03/18 11:20:46;;;;;;;;;;;19.80;40.40;;;;;;8337056;28;19920;-59
2024/03/18 11:24:50;;;;;;;;;;;19.80;41.20;;;;;;8354646;28;19958;-59
2024/03/18 11:29:00;;;;;;;;;;;19.60;42.30;;;;;;8355114;28;19920;-59
2024/03/18 11:33:10;;;;;;;;;;;19.60;42.30;;;;;;8360066;28;19922;-59
2024/03/18 11:37:15;;;;;;;;;;;19.70;41.70;;;;;;8382141;27;19915;-60
2024/03/18 11:41:15;;;;;;;;;;;19.70;41.30;;;;;;8359628;28;19908;-60
2024/03/18 11:45:17;;;;;;;;;;;19.80;41.10;;;;;;8361427;27;19920;-59
2024/03/18 11:49:21;;;;;;;;;;;19.80;40.90;;;;;;8359503;28;19999;-59
2024/03/18 11:53:22;;;;;;;;;;;19.80;40.70;;;;;;8359181;28;19916;-59
2024/03/18 11:57:23;;;;;;;;;;;19.80;40.60;;;;;;8359335;28;19913;-59
2024/03/18 12:01:27;;;;;;;;;;;19.80;40.50;;;;;;8359056;27;19919;-59
2024/03/18 12:05:28;;;;;;;;;;;19.80;40.60;;;;;;8358932;28;19956;-59
2024/03/18 12:09:30;;;;;;;;;;;19.80;40.40;;;;;;8359116;28;19916;-60
2024/03/18 12:13:31;;;;;;;;;;;19.70;41.50;;;;;;8358401;28;19928;-59
2024/03/18 12:17:32;;;;;;;;;;;19.50;42.40;;;;;;8358835;28;20012;-59
2024/03/18 12:21:36;;;;;;;;;;;19.60;42.20;;;;;;8358692;28;19916;-60
2024/03/18 12:29:58;;;;;;;;;;;19.70;41.20;;;;;;8358417;28;19964;-59
2024/03/18 12:33:59;;;;;;;;;;;19.80;41.50;;;;;;8358422;28;20404;-59
2024/03/18 12:38:02;;;;;;;;;;;19.80;40.80;;;;;;8357981;28;19917;-59
2024/03/18 12:42:03;;;;;;;;;;;19.70;40.60;;;;;;8359513;27;19909;-59
2024/03/18 12:46:03;;;;;;;;;;;19.80;40.60;;;;;;8358087;28;19920;-59
2024/03/18 12:50:05;;;;;;;;;;;19.80;40.50;;;;;;8358029;28;20419;-59
2024/03/18 12:54:08;;;;;;;;;;;19.80;40.40;;;;;;8358334;28;20032;-59
2024/03/18 12:58:09;;;;;;;;;;;19.80;40.40;;;;;;8357441;27;19952;-59
2024/03/18 13:02:13;;;;;;;;;;;19.60;41.70;;;;;;8357560;28;19913;-59
2024/03/18 13:06:13;;;;;;;;;;;19.50;42.40;;;;;;8357509;28;20289;-60
2024/03/18 13:10:16;;;;;;;;;;;19.50;41.90;;;;;;8357375;28;19908;-59
2024/03/18 13:14:21;;;;;;;;;;;19.60;41.40;;;;;;8356821;27;19969;-59
2024/03/18 13:18:27;;;;;;;;;;;19.70;41.10;;;;;;8357079;28;19921;-59
2024/03/18 13:22:28;;;;;;;;;;;19.70;40.90;;;;;;8357245;28;19954;-59
2024/03/18 13:26:28;;;;;;;;;;;19.70;40.70;;;;;;8357025;28;19913;-59
2024/03/18 13:30:29;;;;;;;;;;;19.70;40.50;;;;;;8356992;28;19919;-60
2024/03/18 13:34:30;;;;;;;;;;;19.80;40.50;;;;;;8356827;28;19949;-60
2024/03/18 13:38:30;;;;;;;;;;;19.80;40.40;;;;;;8372333;27;19924;-59
2024/03/18 13:42:31;;;;;;;;;;;19.80;40.40;;;;;;8358261;27;19913;-59
2024/03/18 13:46:32;;;;;;;;;;;19.80;40.30;;;;;;8356593;28;19909;-59
2024/03/18 13:50:33;;;;;;;;;;;19.60;41.70;;;;;;8356385;28;19913;-59
2024/03/18 13:54:33;;;;;;;;;;;19.50;42.40;;;;;;8354952;28;19909;-60
2024/03/18 13:58:34;;;;;;;;;;;19.50;41.70;;;;;;8338690;27;20405;-60
2024/03/18 14:02:35;;;;;;;;;;;19.60;41.30;;;;;;8356088;28;19921;-59
2024/03/18 14:06:35;;;;;;;;;;;19.70;41.00;;;;;;8355944;28;19920;-59
2024/03/18 14:10:36;;;;;;;;;;;19.70;40.80;;;;;;8355958;28;19920;-59
2024/03/18 14:14:36;;;;;;;;;;;19.70;40.60;;;;;;8355501;28;19925;-59
2024/03/18 14:18:37;;;;;;;;;;;19.80;40.60;;;;;;8355671;28;19945;-60
2024/03/18 14:22:39;;;;;;;;;;;19.80;40.50;;;;;;8355597;28;19913;-59
2024/03/18 14:26:39;;;;;;;;;;;19.80;40.40;;;;;;8355648;28;19909;-59
2024/03/18 14:30:40;;;;;;;;;;;19.80;40.30;;;;;;8355596;28;19932;-59
2024/03/18 14:34:41;;;;;;;;;;;19.70;40.40;;;;;;8355530;28;20369;-59
2024/03/18 14:38:41;;;;;;;;;;;19.50;41.80;;;;;;8369969;27;20270;-58
2024/03/18 14:42:43;;;;;;;;;;;19.40;42.30;;;;;;8357091;27;19913;-59
2024/03/18 14:46:44;;;;;;;;;;;19.50;41.60;;;;;;8337650;28;20000;-58
2024/03/18 14:50:45;;;;;;;;;;;19.60;41.20;;;;;;8355066;28;19920;-59
2024/03/18 14:54:46;;;;;;;;;;;19.70;40.90;;;;;;8355023;28;20285;-58
2024/03/18 14:58:47;;;;;;;;;;;19.70;40.70;;;;;;8354613;28;19912;-58
2024/03/18 15:02:47;;;;;;;;;;;19.70;40.50;;;;;;8354646;28;19913;-58
2024/03/18 15:06:48;;;;;;;;;;;19.80;40.40;;;;;;8359286;28;20029;-58
2024/03/18 15:10:48;;;;;;;;;;;19.80;40.30;;;;;;8360380;28;19917;-57
2024/03/18 15:14:49;;;;;;;;;;;19.80;40.20;;;;;;8359961;28;19932;-58
2024/03/18 15:18:52;;;;;;;;;;;19.70;40.20;;;;;;8360325;28;20378;-58
2024/03/18 15:22:52;;;;;;;;;;;19.80;40.50;;;;;;8359903;28;19909;-59
2024/03/18 15:31:12;;;;;;;;;;;19.50;42.10;;;;;;8359954;28;19956;-59
2024/03/18 15:35:13;;;;;;;;;;;19.60;41.50;;;;;;8359489;28;19917;-58
2024/03/18 15:39:18;;;;;;;;;;;19.70;41.10;;;;;;8377964;27;19961;-57
2024/03/18 15:43:18;;;;;;;;;;;19.70;40.80;;;;;;8361702;27;19956;-58
2024/03/18 15:47:19;;;;;;;;;;;19.70;40.60;;;;;;8359738;28;19920;-58
2024/03/18 15:51:20;;;;;;;;;;;19.70;40.40;;;;;;8360423;28;19920;-58
2024/03/18 15:55:20;;;;;;;;;;;19.80;40.40;;;;;;8359792;28;19921;-58
2024/03/18 15:59:21;;;;;;;;;;;19.80;40.30;;;;;;8359419;27;20275;-59
2024/03/18 16:03:22;;;;;;;;;;;19.80;40.20;;;;;;8358909;28;19913;-59
2024/03/18 16:07:23;;;;;;;;;;;19.70;40.20;;;;;;8359170;28;19965;-58
2024/03/18 16:11:23;;;;;;;;;;;19.70;40.80;;;;;;8358464;27;20362;-59
2024/03/18 16:15:24;;;;;;;;;;;19.50;42.00;;;;;;8357500;28;19947;-58
2024/03/18 16:19:25;;;;;;;;;;;19.40;42.00;;;;;;8340976;28;20046;-58
2024/03/18 16:23:26;;;;;;;;;;;19.50;41.40;;;;;;8358426;28;19952;-58
2024/03/18 16:27:27;;;;;;;;;;;19.60;41.00;;;;;;8358338;28;19913;-58
2024/03/18 16:31:27;;;;;;;;;;;19.70;40.80;;;;;;8358593;28;20437;-58
2024/03/18 16:35:29;;;;;;;;;;;19.70;40.60;;;;;;8340011;28;19928;-58
2024/03/18 16:39:30;;;;;;;;;;;19.70;40.50;;;;;;8376485;27;19913;-57
2024/03/18 16:43:31;;;;;;;;;;;19.70;40.40;;;;;;8360092;27;19923;-58
2024/03/18 16:47:31;;;;;;;;;;;19.70;40.30;;;;;;8357809;28;20117;-57
2024/03/18 16:51:32;;;;;;;;;;;19.70;40.20;;;;;;8359020;28;19956;-58
2024/03/18 16:55:33;;;;;;;;;;;19.80;40.60;;;;;;8357624;28;19917;-58
2024/03/18 16:59:34;;;;;;;;;;;19.70;40.90;;;;;;8357668;27;20332;-59
2024/03/18 17:03:34;;;;;;;;;;;19.50;42.10;;;;;;8357703;28;20205;-59
2024/03/18 17:07:35;;;;;;;;;;;19.50;41.90;;;;;;8357384;28;20369;-57
2024/03/18 17:11:36;;;;;;;;;;;19.50;41.30;;;;;;8357327;28;19920;-59
2024/03/18 17:15:37;;;;;;;;;;;19.60;40.90;;;;;;8323216;28;19921;-60
2024/03/18 17:19:37;;;;;;;;;;;19.70;40.70;;;;;;8324268;28;19954;-59
2024/03/18 17:23:38;;;;;;;;;;;19.70;40.50;;;;;;8324181;28;19913;-60
2024/03/18 17:27:38;;;;;;;;;;;19.70;40.40;;;;;;8323945;28;20329;-60
2024/03/18 17:31:40;;;;;;;;;;;19.70;40.30;;;;;;8323912;28;19913;-59
2024/03/18 17:35:41;;;;;;;;;;;19.70;40.20;;;;;;8323800;28;20004;-59
2024/03/18 17:39:41;;;;;;;;;;;19.70;40.10;;;;;;8340544;27;19924;-58
2024/03/18 17:43:42;;;;;;;;;;;19.70;40.10;;;;;;8325394;27;19913;-58
2024/03/18 17:47:42;;;;;;;;;;;19.60;40.90;;;;;;8323637;28;19909;-57
2024/03/18 17:51:43;;;;;;;;;;;19.50;42.00;;;;;;8324091;28;19933;-59
2024/03/18 17:55:46;;;;;;;;;;;19.50;41.80;;;;;;8323367;28;20366;-59
2024/03/18 17:59:49;;;;;;;;;;;19.50;41.30;;;;;;8323290;28;19916;-59
2024/03/18 18:03:49;;;;;;;;;;;19.60;40.90;;;;;;8323658;28;20389;-59
2024/03/18 18:07:51;;;;;;;;;;;19.70;40.70;;;;;;8323153;28;20287;-58
2024/03/18 18:11:51;;;;;;;;;;;19.70;40.50;;;;;;8323203;28;19913;-58
2024/03/18 18:15:52;;;;;;;;;;;19.70;40.40;;;;;;8351513;28;20061;-58
2024/03/18 18:19:53;;;;;;;;;;;19.70;40.30;;;;;;8355783;28;20358;-58
2024/03/18 18:23:54;;;;;;;;;;;19.70;40.20;;;;;;8355569;28;19913;-59
2024/03/18 18:27:55;;;;;;;;;;;19.80;40.10;;;;;;8355309;28;19959;-58
2024/03/18 18:31:56;;;;;;;;;;;19.70;40.00;;;;;;8355609;28;19913;-58
2024/03/18 18:35:56;;;;;;;;;;;19.60;40.90;;;;;;8355264;28;20426;-58
2024/03/18 18:40:00;;;;;;;;;;;19.50;41.90;;;;;;8354584;28;19959;-58
2024/03/18 18:44:03;;;;;;;;;;;19.50;41.60;;;;;;8322897;28;19926;-58
2024/03/18 18:48:04;;;;;;;;;;;19.60;41.10;;;;;;8322274;28;20370;-58
2024/03/18 18:52:06;;;;;;;;;;;19.70;40.80;;;;;;8321980;28;20484;-58
2024/03/18 18:56:07;;;;;;;;;;;19.70;40.50;;;;;;8322118;28;20367;-58
2024/03/18 19:00:10;;;;;;;;;;;19.70;40.60;;;;;;8341085;27;20278;-58
2024/03/18 19:04:11;;;;;;;;;;;19.70;40.30;;;;;;8354931;28;19944;-58
2024/03/18 19:08:11;;;;;;;;;;;19.70;40.10;;;;;;8354651;28;19917;-57
2024/03/18 19:12:12;;;;;;;;;;;19.70;40.00;;;;;;8354439;27;19913;-58
2024/03/18 19:16:12;;;;;;;;;;;19.80;40.00;;;;;;8354579;28;19969;-59
2024/03/18 19:20:14;;;;;;;;;;;19.80;40.00;;;;;;8354382;28;19917;-58
2024/03/18 19:24:15;;;;;;;;;;;19.60;41.10;;;;;;8354238;28;19913;-58
2024/03/18 19:28:15;;;;;;;;;;;19.50;42.00;;;;;;8354915;28;19944;-57
2024/03/18 19:32:16;;;;;;;;;;;19.50;41.50;;;;;;8354227;28;20289;-58
2024/03/18 19:36:16;;;;;;;;;;;19.50;41.00;;;;;;8354027;28;19924;-58
2024/03/18 19:40:17;;;;;;;;;;;19.60;40.70;;;;;;8372069;27;20113;-57
2024/03/18 19:44:18;;;;;;;;;;;19.70;40.50;;;;;;8355743;27;19920;-58
2024/03/18 19:48:19;;;;;;;;;;;19.70;40.30;;;;;;8336174;28;19913;-58
2024/03/18 19:52:19;;;;;;;;;;;19.70;40.20;;;;;;8356874;28;19913;-58
2024/03/18 19:56:20;;;;;;;;;;;19.70;40.10;;;;;;8341906;28;20405;-57
2024/03/18 20:00:21;;;;;;;;;;;19.70;40.00;;;;;;8359258;28;19920;-58
2024/03/18 20:04:21;;;;;;;;;;;19.70;39.90;;;;;;8359020;28;20356;-58
2024/03/18 20:08:22;;;;;;;;;;;19.70;39.90;;;;;;8359222;28;19976;-58
2024/03/18 20:12:23;;;;;;;;;;;19.60;41.20;;;;;;8359159;28;19917;-58
2024/03/18 20:16:23;;;;;;;;;;;19.40;42.00;;;;;;8358768;28;19917;-58
2024/03/18 20:20:24;;;;;;;;;;;19.50;41.40;;;;;;8358857;28;19913;-58
2024/03/18 20:24:24;;;;;;;;;;;19.60;40.90;;;;;;8358911;28;19920;-58
2024/03/18 20:28:25;;;;;;;;;;;19.70;40.60;;;;;;8358427;28;20418;-59
2024/03/18 20:32:25;;;;;;;;;;;19.70;40.40;;;;;;8358463;28;20016;-60
2024/03/18 20:36:26;;;;;;;;;;;19.70;40.20;;;;;;8358465;28;19924;-60
2024/03/18 20:40:27;;;;;;;;;;;19.70;40.10;;;;;;8354757;28;19913;-60
2024/03/18 20:44:27;;;;;;;;;;;19.70;40.00;;;;;;8359879;27;19949;-60
2024/03/18 20:48:28;;;;;;;;;;;19.70;39.80;;;;;;8358358;28;19919;-60
2024/03/18 20:52:29;;;;;;;;;;;19.80;39.90;;;;;;8357797;28;19913;-60
2024/03/18 20:56:31;;;;;;;;;;;19.70;39.80;;;;;;8358384;28;19917;-60
2024/03/18 21:00:31;;;;;;;;;;;19.60;41.10;;;;;;8357497;27;19923;-60
2024/03/18 21:04:32;;;;;;;;;;;19.50;41.80;;;;;;8357135;28;19924;-59
2024/03/18 21:08:32;;;;;;;;;;;19.50;41.10;;;;;;8358042;28;19919;-60
2024/03/18 21:12:33;;;;;;;;;;;19.60;40.70;;;;;;8356924;27;20377;-59
2024/03/18 21:16:34;;;;;;;;;;;19.70;40.40;;;;;;8357575;28;20393;-59
2024/03/18 21:20:34;;;;;;;;;;;19.70;40.20;;;;;;8357221;28;19913;-60
2024/03/18 21:24:35;;;;;;;;;;;19.70;40.10;;;;;;8356933;28;19955;-58
2024/03/18 21:28:35;;;;;;;;;;;19.70;40.00;;;;;;8356978;28;20123;-59
2024/03/18 21:32:36;;;;;;;;;;;19.70;40.00;;;;;;8356895;28;19913;-60
2024/03/18 21:36:36;;;;;;;;;;;19.70;39.90;;;;;;8363664;27;20472;-60
2024/03/18 21:40:37;;;;;;;;;;;19.70;39.80;;;;;;8367057;27;20301;-59
2024/03/18 21:44:37;;;;;;;;;;;19.80;39.90;;;;;;8358175;27;19913;-60
2024/03/18 21:48:41;;;;;;;;;;;19.60;41.20;;;;;;8356431;28;19913;-59
2024/03/18 21:52:43;;;;;;;;;;;19.50;41.80;;;;;;8356645;28;20418;-58
2024/03/18 21:56:48;;;;;;;;;;;19.50;41.10;;;;;;8356922;28;19940;-59
2024/03/18 22:00:49;;;;;;;;;;;19.70;40.70;;;;;;8356084;27;19920;-59
2024/03/18 22:04:49;;;;;;;;;;;19.70;40.30;;;;;;8356030;28;20430;-60
2024/03/18 22:08:50;;;;;;;;;;;19.70;40.20;;;;;;8356232;28;20255;-59
2024/03/18 22:12:50;;;;;;;;;;;19.80;40.00;;;;;;8355034;27;19921;-59
2024/03/18 22:16:51;;;;;;;;;;;19.80;39.80;;;;;;8355468;28;20469;-59
2024/03/18 22:20:51;;;;;;;;;;;19.80;39.80;;;;;;8355620;28;19921;-58
2024/03/18 22:24:52;;;;;;;;;;;19.80;39.70;;;;;;8355672;28;19945;-60
2024/03/18 22:28:53;;;;;;;;;;;19.80;39.70;;;;;;8355311;28;19909;-59
2024/03/18 22:32:53;;;;;;;;;;;19.80;39.90;;;;;;8355465;28;19913;-59
2024/03/18 22:36:54;;;;;;;;;;;19.60;41.10;;;;;;8373740;27;20376;-59
2024/03/18 22:40:54;;;;;;;;;;;19.50;41.60;;;;;;8355164;28;19913;-58
2024/03/18 22:44:55;;;;;;;;;;;19.50;41.00;;;;;;8356990;27;19913;-59
2024/03/18 22:48:56;;;;;;;;;;;19.60;40.70;;;;;;8355319;28;19913;-58
2024/03/18 22:52:59;;;;;;;;;;;19.60;40.30;;;;;;8354974;28;19913;-59
2024/03/18 22:57:00;;;;;;;;;;;19.60;40.20;;;;;;8354910;28;19923;-59
2024/03/18 23:01:03;;;;;;;;;;;19.70;40.10;;;;;;8354850;27;19913;-59
2024/03/18 23:05:04;;;;;;;;;;;19.70;40.00;;;;;;8336913;28;19977;-58
2024/03/18 23:09:09;;;;;;;;;;;19.70;39.90;;;;;;8354643;28;19909;-59
2024/03/18 23:13:09;;;;;;;;;;;19.70;40.00;;;;;;8354195;27;20397;-59
2024/03/18 23:17:10;;;;;;;;;;;19.70;39.80;;;;;;8354371;28;20449;-59
2024/03/18 23:21:11;;;;;;;;;;;19.60;40.20;;;;;;8354431;28;20354;-59
2024/03/18 23:25:11;;;;;;;;;;;19.50;41.40;;;;;;8355916;28;19917;-60
2024/03/18 23:29:12;;;;;;;;;;;19.40;41.60;;;;;;8359984;28;20003;-59
2024/03/18 23:33:12;;;;;;;;;;;19.50;41.10;;;;;;8359888;28;19913;-59